Current Conditions
Mostly Cloudy
Conditions



Pressure
1000.92 (hPa) - 29.56 (inHG)
Visibility

10.0 (km) - 6.2 (miles)
Temperature
18  °C
Temperature
11  °C
Dewpoint
64  %
 Humidity
Wind Speed
7.2  m/s
16  mph
26  km/h
14  kts
Wind Direction
N
45°
E
90°
135°
S
180°
225°
W
270°
315°
 200°

South South
West
Airport Data
EKKA
Karup Airport
Metar :EKKA 091050Z AUTO 20014KT 9999 BKN029/// 18/11 Q1001
Sun 9th May 12:50 pm
Raw Metar Info
Raw METAR is the most common format in the world for the transmission of observational weather data. It is highly standardized through the International Civil Aviation Organization (ICAO), which allows it to be understood throughout most of the world.
API Info
Data Provided by
https://www.checkwx.com/weather/EKKA

Aviation Weather providing METAR, TAF, AIRMET, SIGMET and OUTLOOK Weather Reports
© Info
CSS/SVG/PHP scripts were developed by weather34.com for use in the weather34 template © 2015-2021

Guide Info provided by Metar-Wikipedia